Time;durP1;ratioP1;P1;durP2;ratioP2;P2;SDS_P1;SDS_P2;PMS_P1;PMS_P2;Temp;Humidity;BMP_temperature;BMP_pressure;BME280_temperature;BME280_humidity;BME280_pressure;Samples;Min_cycle;Max_cycle;Signal;HPM_P1;HPM_P2
2021/05/28 00:01:54;;;;;;;6.93;5.30;;;16.10;99.90;;;;;;5075204;28;20541;-70
2021/05/28 00:04:20;;;;;;;6.93;5.07;;;16.00;99.90;;;;;;5075031;28;20229;-70
2021/05/28 00:06:47;;;;;;;7.50;5.53;;;16.00;99.90;;;;;;5074889;28;20259;-70
2021/05/28 00:09:14;;;;;;;9.30;5.22;;;15.90;99.90;;;;;;5075109;28;20229;-70
2021/05/28 00:11:41;;;;;;;5.75;4.18;;;15.80;99.90;;;;;;5074786;28;20662;-70
2021/05/28 00:14:08;;;;;;;8.55;5.95;;;15.80;99.90;;;;;;5075081;28;20198;-69
2021/05/28 00:16:35;;;;;;;9.60;5.03;;;15.90;99.90;;;;;;5074674;28;20709;-70
2021/05/28 00:19:01;;;;;;;6.40;4.68;;;15.80;99.90;;;;;;5074684;28;20206;-70
2021/05/28 00:21:28;;;;;;;7.00;5.18;;;15.90;99.90;;;;;;5074855;28;20229;-70
2021/05/28 00:23:55;;;;;;;5.80;4.68;;;15.70;99.90;;;;;;5074694;28;20276;-70
2021/05/28 00:26:21;;;;;;;8.30;5.10;;;15.60;99.90;;;;;;5074400;28;20244;-71
2021/05/28 00:28:49;;;;;;;7.20;4.60;;;15.60;99.90;;;;;;5074675;28;20202;-70
2021/05/28 00:31:16;;;;;;;6.20;4.30;;;15.70;99.90;;;;;;5074683;28;20206;-70
2021/05/28 00:33:42;;;;;;;6.35;4.38;;;15.80;99.90;;;;;;5074327;28;20662;-70
2021/05/28 00:36:09;;;;;;;6.03;4.40;;;15.80;99.90;;;;;;5074281;28;20206;-70
2021/05/28 00:38:36;;;;;;;7.53;4.45;;;15.60;99.90;;;;;;5074512;28;20202;-70
2021/05/28 00:41:03;;;;;;;6.00;5.00;;;15.70;99.90;;;;;;5074367;28;20570;-70
2021/05/28 00:43:30;;;;;;;5.45;4.28;;;15.60;99.90;;;;;;5074671;28;20206;-70
2021/05/28 00:45:56;;;;;;;6.40;4.43;;;15.70;99.90;;;;;;5074721;28;20206;-70
2021/05/28 00:48:23;;;;;;;7.15;4.53;;;15.80;99.90;;;;;;5074106;28;20201;-70
2021/05/28 00:50:50;;;;;;;5.72;4.88;;;15.70;99.90;;;;;;5074283;28;20260;-69
2021/05/28 00:53:17;;;;;;;5.00;4.47;;;15.60;99.90;;;;;;5074302;28;20584;-70
2021/05/28 00:55:44;;;;;;;6.93;3.83;;;15.60;99.90;;;;;;5074201;28;20232;-70
2021/05/28 00:58:11;;;;;;;7.65;5.00;;;15.50;99.90;;;;;;5074052;28;20242;-70
2021/05/28 01:00:38;;;;;;;8.10;4.97;;;15.50;99.90;;;;;;5073986;28;20206;-70
2021/05/28 01:03:04;;;;;;;6.38;4.18;;;15.40;99.90;;;;;;5073796;28;20209;-69
2021/05/28 01:05:32;;;;;;;6.93;4.75;;;15.40;99.90;;;;;;5074311;28;20209;-70
2021/05/28 01:07:58;;;;;;;4.85;4.35;;;15.50;99.90;;;;;;5074144;28;20696;-70
2021/05/28 01:10:25;;;;;;;7.20;4.95;;;15.50;99.90;;;;;;5073767;28;20207;-70
2021/05/28 01:12:52;;;;;;;9.90;5.00;;;15.40;99.90;;;;;;5073747;28;20202;-70
2021/05/28 01:15:19;;;;;;;4.60;3.55;;;15.50;99.90;;;;;;5073831;28;20198;-70
2021/05/28 01:17:45;;;;;;;5.00;4.10;;;15.50;99.90;;;;;;5073479;28;20779;-70
2021/05/28 01:20:12;;;;;;;8.82;4.65;;;15.40;99.90;;;;;;5073744;28;20243;-70
2021/05/28 01:22:40;;;;;;;6.40;4.18;;;15.30;99.90;;;;;;5073531;28;20681;-70
2021/05/28 01:25:08;;;;;;;6.28;4.30;;;15.40;99.90;;;;;;5073542;28;20218;-70
2021/05/28 01:27:35;;;;;;;4.88;3.83;;;15.40;99.90;;;;;;5073345;28;20207;-70
2021/05/28 01:30:01;;;;;;;5.47;3.78;;;15.40;99.90;;;;;;5073603;28;20248;-70
2021/05/28 01:32:28;;;;;;;7.22;4.38;;;15.50;99.90;;;;;;5073562;28;20206;-70
2021/05/28 01:34:54;;;;;;;8.00;4.20;;;15.30;99.90;;;;;;5073475;28;20222;-70
2021/05/28 01:37:21;;;;;;;4.47;3.85;;;15.50;99.90;;;;;;5073275;28;20229;-70
2021/05/28 01:39:50;;;;;;;9.07;4.32;;;15.50;99.90;;;;;;5073368;28;20205;-70
2021/05/28 01:42:16;;;;;;;7.60;3.83;;;15.50;99.90;;;;;;5073341;28;20690;-70
2021/05/28 01:44:43;;;;;;;4.72;3.88;;;15.50;99.90;;;;;;5073071;28;20247;-70
2021/05/28 01:47:10;;;;;;;5.32;4.13;;;15.50;99.90;;;;;;5072917;28;20574;-70
2021/05/28 01:49:39;;;;;;;6.20;3.70;;;15.50;99.90;;;;;;5073371;28;20241;-70
2021/05/28 01:52:06;;;;;;;4.90;3.83;;;15.50;99.90;;;;;;5072925;28;20604;-70
2021/05/28 01:54:34;;;;;;;5.88;4.05;;;15.50;99.90;;;;;;5073113;28;20210;-70
2021/05/28 01:57:02;;;;;;;5.15;3.90;;;15.40;99.90;;;;;;5072952;28;20576;-70
2021/05/28 01:59:28;;;;;;;4.65;3.63;;;15.30;99.90;;;;;;5073048;28;20203;-70
2021/05/28 02:01:55;;;;;;;5.15;4.65;;;15.30;99.90;;;;;;5072610;28;20622;-70
2021/05/28 02:04:22;;;;;;;6.68;3.83;;;15.30;99.90;;;;;;5072663;28;20202;-70
2021/05/28 02:06:49;;;;;;;5.25;3.80;;;15.40;99.90;;;;;;5072787;28;20198;-70
2021/05/28 02:09:16;;;;;;;3.75;3.28;;;15.40;99.90;;;;;;5072682;28;20593;-71
2021/05/28 02:11:43;;;;;;;4.68;3.85;;;15.40;99.90;;;;;;5072455;28;20199;-70
2021/05/28 02:14:10;;;;;;;6.07;3.58;;;15.40;99.90;;;;;;5072792;28;20210;-70
2021/05/28 02:16:38;;;;;;;7.22;3.67;;;15.30;99.90;;;;;;5072663;28;20209;-70
2021/05/28 02:19:06;;;;;;;5.18;3.90;;;15.30;99.90;;;;;;5072166;28;20205;-71
2021/05/28 02:21:33;;;;;;;6.57;4.55;;;15.40;99.90;;;;;;5072587;28;20203;-71
2021/05/28 02:24:00;;;;;;;5.28;4.07;;;15.40;99.90;;;;;;5072247;28;20210;-71
2021/05/28 02:26:27;;;;;;;3.92;3.47;;;15.40;99.90;;;;;;5072395;28;20554;-72
2021/05/28 02:28:53;;;;;;;4.75;3.72;;;15.40;99.90;;;;;;5072417;28;20203;-71
2021/05/28 02:31:21;;;;;;;4.60;3.67;;;15.20;99.90;;;;;;5072168;28;20203;-71
2021/05/28 02:33:47;;;;;;;5.10;3.45;;;15.20;99.90;;;;;;5072318;28;20577;-71
2021/05/28 02:36:13;;;;;;;6.07;4.07;;;15.20;99.90;;;;;;5072044;28;20574;-71
2021/05/28 02:38:40;;;;;;;5.85;4.10;;;15.10;99.90;;;;;;5071954;28;20246;-71
2021/05/28 02:41:07;;;;;;;8.93;4.65;;;14.90;99.90;;;;;;5072374;28;20209;-70
2021/05/28 02:43:34;;;;;;;4.20;3.10;;;14.90;99.90;;;;;;5072273;28;20202;-70
2021/05/28 02:46:00;;;;;;;7.75;3.92;;;14.90;99.90;;;;;;5072113;28;20210;-70
2021/05/28 02:48:28;;;;;;;5.80;4.40;;;14.90;99.90;;;;;;5072105;28;20577;-70
2021/05/28 02:50:54;;;;;;;7.65;4.25;;;14.90;99.90;;;;;;5071960;28;20248;-71
2021/05/28 02:53:21;;;;;;;7.72;4.18;;;15.00;99.90;;;;;;5071907;28;20681;-71
2021/05/28 02:55:47;;;;;;;7.30;3.65;;;15.10;99.90;;;;;;5072071;28;20251;-71
2021/05/28 02:58:14;;;;;;;5.38;3.85;;;14.90;99.90;;;;;;5071970;28;20255;-72
2021/05/28 03:00:41;;;;;;;5.63;3.80;;;14.80;99.90;;;;;;5071804;28;20202;-71
2021/05/28 03:03:07;;;;;;;7.18;4.15;;;14.60;99.90;;;;;;5072140;28;20687;-71
2021/05/28 03:05:34;;;;;;;5.32;4.05;;;14.60;99.90;;;;;;5071654;28;20303;-71
2021/05/28 03:08:01;;;;;;;4.90;3.67;;;14.70;99.90;;;;;;5071669;28;20210;-71
2021/05/28 03:10:28;;;;;;;6.75;4.30;;;14.70;99.90;;;;;;5071769;28;20539;-71
2021/05/28 03:12:54;;;;;;;6.00;3.75;;;14.60;99.90;;;;;;5071574;28;20209;-71
2021/05/28 03:15:20;;;;;;;5.85;4.25;;;14.70;99.90;;;;;;5071721;28;20624;-71
2021/05/28 03:17:47;;;;;;;6.15;3.92;;;14.80;99.90;;;;;;5071513;28;20693;-71
2021/05/28 03:20:21;;;;;;;9.30;4.13;;;14.70;99.90;;;;;;5071608;28;20247;-70
2021/05/28 03:22:48;;;;;;;3.97;3.20;;;14.70;99.90;;;;;;5071599;28;20260;-70
2021/05/28 03:25:15;;;;;;;6.10;4.15;;;14.60;99.90;;;;;;5071367;28;20260;-70
2021/05/28 03:27:43;;;;;;;5.20;3.75;;;14.50;99.90;;;;;;5071477;28;20236;-70
2021/05/28 03:30:11;;;;;;;5.78;3.95;;;14.50;99.90;;;;;;5073023;28;20207;-70
2021/05/28 03:32:38;;;;;;;7.45;4.40;;;14.50;99.90;;;;;;5076110;28;20206;-70
2021/05/28 03:35:06;;;;;;;4.85;3.22;;;14.50;99.90;;;;;;5075484;28;20206;-70
2021/05/28 03:37:33;;;;;;;6.65;4.45;;;14.40;99.90;;;;;;5075633;28;20229;-70
2021/05/28 03:40:00;;;;;;;7.50;4.13;;;14.50;99.90;;;;;;5075890;28;20220;-70
2021/05/28 03:42:27;;;;;;;5.95;3.72;;;14.40;99.90;;;;;;5075529;28;20201;-70
2021/05/28 03:44:53;;;;;;;5.28;4.03;;;14.40;99.90;;;;;;5075407;28;20217;-69
2021/05/28 03:47:21;;;;;;;5.22;4.30;;;14.40;99.90;;;;;;5075551;28;20583;-70
2021/05/28 03:49:47;;;;;;;8.10;4.43;;;14.40;99.90;;;;;;5075203;28;20205;-70
2021/05/28 03:52:14;;;;;;;4.40;4.00;;;14.30;99.90;;;;;;5075443;28;20202;-70
2021/05/28 03:54:41;;;;;;;8.30;3.70;;;14.30;99.90;;;;;;5075448;28;20206;-70
2021/05/28 03:57:08;;;;;;;7.88;3.47;;;14.20;99.90;;;;;;5075332;28;20638;-70
2021/05/28 03:59:36;;;;;;;5.82;4.00;;;14.20;99.90;;;;;;5075281;28;20198;-70
2021/05/28 04:02:03;;;;;;;5.25;4.68;;;14.10;99.90;;;;;;5075005;28;20747;-70
2021/05/28 04:04:31;;;;;;;7.47;4.97;;;14.10;99.90;;;;;;5075230;28;20202;-69
2021/05/28 04:06:58;;;;;;;6.10;4.32;;;14.00;99.90;;;;;;5075232;28;20289;-70
2021/05/28 04:09:24;;;;;;;7.47;3.88;;;14.10;99.90;;;;;;5075268;28;20225;-70
2021/05/28 04:11:51;;;;;;;5.18;4.20;;;14.10;99.90;;;;;;5074917;28;20210;-69
2021/05/28 04:14:18;;;;;;;7.28;4.35;;;14.10;99.90;;;;;;5074789;28;20202;-70
2021/05/28 04:16:45;;;;;;;7.97;4.28;;;14.10;99.90;;;;;;5074572;28;20251;-70
2021/05/28 04:19:11;;;;;;;5.53;4.15;;;14.10;99.90;;;;;;5075140;28;20555;-71
2021/05/28 04:21:38;;;;;;;4.20;3.55;;;14.10;99.90;;;;;;5075027;28;20206;-70
2021/05/28 04:24:05;;;;;;;8.18;5.28;;;14.10;99.90;;;;;;5074702;28;20257;-70
2021/05/28 04:26:32;;;;;;;5.13;3.58;;;14.10;99.90;;;;;;5074535;28;20206;-70
2021/05/28 04:28:58;;;;;;;6.50;4.07;;;14.20;99.90;;;;;;5074692;28;20198;-70
2021/05/28 04:31:26;;;;;;;5.97;3.47;;;14.20;99.90;;;;;;5074380;28;20692;-70
2021/05/28 04:33:52;;;;;;;6.78;3.97;;;14.20;99.90;;;;;;5074590;28;20201;-71
2021/05/28 04:36:19;;;;;;;6.75;4.35;;;14.10;99.90;;;;;;5074354;28;20206;-70
2021/05/28 04:38:45;;;;;;;5.32;3.92;;;14.20;99.90;;;;;;5074288;28;20770;-70
2021/05/28 04:41:12;;;;;;;6.80;3.63;;;14.30;99.90;;;;;;5074484;28;20202;-70
2021/05/28 04:43:39;;;;;;;8.70;4.38;;;14.30;99.90;;;;;;5073724;28;20206;-71
2021/05/28 04:46:05;;;;;;;9.20;3.97;;;14.40;99.90;;;;;;5074174;28;20293;-71
2021/05/28 04:48:33;;;;;;;4.78;3.78;;;14.50;99.90;;;;;;5074492;28;20251;-70
2021/05/28 04:50:59;;;;;;;4.65;3.85;;;14.50;99.90;;;;;;5074447;28;20202;-70
2021/05/28 04:53:26;;;;;;;6.63;3.33;;;14.50;99.90;;;;;;5074164;28;20203;-70
2021/05/28 04:55:52;;;;;;;8.52;3.67;;;14.50;99.90;;;;;;5074036;28;20252;-71
2021/05/28 04:58:19;;;;;;;4.13;3.50;;;14.50;99.90;;;;;;5067524;28;20592;-71
2021/05/28 05:00:45;;;;;;;7.35;3.88;;;14.60;99.90;;;;;;5069768;28;20202;-72
2021/05/28 05:03:12;;;;;;;6.13;3.67;;;14.60;99.90;;;;;;5073775;28;20206;-70
2021/05/28 05:05:39;;;;;;;8.35;3.85;;;14.60;99.90;;;;;;5073889;28;20665;-73
2021/05/28 05:08:06;;;;;;;5.30;3.42;;;14.60;99.90;;;;;;5072911;28;20214;-71
2021/05/28 05:10:32;;;;;;;6.80;4.28;;;14.70;99.90;;;;;;5068993;28;20214;-71
2021/05/28 05:12:59;;;;;;;6.90;3.92;;;14.70;99.90;;;;;;5065943;28;20210;-71
2021/05/28 05:15:25;;;;;;;7.75;3.60;;;14.80;99.90;;;;;;5072898;28;20209;-71
2021/05/28 05:17:52;;;;;;;8.10;4.10;;;14.80;99.90;;;;;;5073541;28;20295;-71
2021/05/28 05:20:18;;;;;;;6.63;3.88;;;14.90;99.90;;;;;;5073692;28;20206;-70
2021/05/28 05:22:46;;;;;;;7.60;3.72;;;14.90;99.90;;;;;;5072360;28;20210;-70
2021/05/28 05:25:13;;;;;;;7.03;4.13;;;15.00;99.90;;;;;;5073124;28;20210;-70
2021/05/28 05:27:39;;;;;;;9.45;3.65;;;15.10;99.90;;;;;;5073369;28;20206;-70
2021/05/28 05:30:07;;;;;;;5.20;3.65;;;15.10;99.90;;;;;;5071493;28;20212;-69
2021/05/28 05:32:34;;;;;;;11.05;4.80;;;15.10;99.90;;;;;;5066633;28;20219;-70
2021/05/28 05:35:00;;;;;;;4.20;2.92;;;15.20;99.90;;;;;;5053429;28;20203;-69
2021/05/28 05:37:26;;;;;;;6.93;4.15;;;15.20;99.90;;;;;;5053298;28;20227;-70
2021/05/28 05:39:54;;;;;;;10.27;4.75;;;15.30;99.90;;;;;;5057658;28;20233;-70
2021/05/28 05:42:20;;;;;;;6.45;3.33;;;15.30;99.90;;;;;;5059316;28;20315;-70
2021/05/28 05:44:47;;;;;;;10.38;3.83;;;15.30;99.90;;;;;;5062272;28;20682;-70
2021/05/28 05:47:13;;;;;;;6.15;4.20;;;15.40;99.90;;;;;;5053250;28;20550;-72
2021/05/28 05:49:40;;;;;;;7.22;3.88;;;15.50;99.90;;;;;;5069584;28;20259;-70
2021/05/28 05:52:06;;;;;;;6.10;3.53;;;15.50;99.90;;;;;;5072971;28;20198;-72
2021/05/28 05:54:33;;;;;;;7.68;4.20;;;15.70;99.90;;;;;;5066531;28;20229;-70
2021/05/28 05:57:00;;;;;;;7.85;4.47;;;15.80;99.90;;;;;;5072410;28;20226;-70
2021/05/28 05:59:29;;;;;;;7.38;3.67;;;16.00;99.90;;;;;;5072597;28;20662;-69
2021/05/28 06:01:55;;;;;;;5.75;3.80;;;16.10;99.90;;;;;;5072673;28;20677;-71
2021/05/28 06:04:22;;;;;;;7.13;3.30;;;16.20;99.90;;;;;;5060365;28;20257;-73
2021/05/28 06:06:48;;;;;;;7.22;4.03;;;16.30;99.90;;;;;;5062274;28;20214;-73
2021/05/28 06:09:15;;;;;;;8.95;3.80;;;16.20;99.90;;;;;;5060732;28;20215;-72
2021/05/28 06:11:41;;;;;;;9.50;4.45;;;16.40;99.90;;;;;;5052171;28;20203;-71
2021/05/28 06:14:09;;;;;;;8.23;4.00;;;16.60;99.90;;;;;;5059893;28;20581;-72
2021/05/28 06:16:35;;;;;;;5.07;3.15;;;16.90;99.90;;;;;;5072179;28;20263;-73
2021/05/28 06:19:02;;;;;;;6.70;3.22;;;17.20;99.90;;;;;;5072030;28;20253;-72
2021/05/28 06:21:30;;;;;;;5.72;3.53;;;17.40;99.90;;;;;;5068024;28;20256;-71
2021/05/28 06:23:57;;;;;;;5.45;3.45;;;17.60;99.90;;;;;;5069436;28;20217;-71
2021/05/28 06:26:23;;;;;;;6.05;2.90;;;17.60;99.90;;;;;;5067524;28;20256;-72
2021/05/28 06:28:50;;;;;;;5.35;3.72;;;17.80;99.90;;;;;;5069731;28;20202;-73
2021/05/28 06:31:17;;;;;;;6.95;3.42;;;17.90;99.90;;;;;;5062580;28;20210;-72
2021/05/28 06:33:44;;;;;;;5.05;3.38;;;18.20;99.90;;;;;;5071191;28;20232;-72
2021/05/28 06:36:10;;;;;;;8.93;3.70;;;18.10;99.90;;;;;;5071724;28;20587;-72
2021/05/28 06:38:37;;;;;;;7.32;3.22;;;18.30;99.90;;;;;;5071379;28;20229;-72
2021/05/28 06:41:03;;;;;;;5.93;2.90;;;18.40;99.90;;;;;;5067865;28;20202;-72
2021/05/28 06:43:31;;;;;;;4.68;3.03;;;18.60;99.90;;;;;;5070176;28;20202;-71
2021/05/28 06:45:57;;;;;;;4.85;3.10;;;18.60;99.90;;;;;;5068537;28;20623;-72
2021/05/28 06:48:24;;;;;;;9.77;3.90;;;18.50;99.90;;;;;;5071590;28;20259;-73
2021/05/28 06:50:51;;;;;;;3.58;2.58;;;18.50;99.90;;;;;;5071759;28;20213;-74
2021/05/28 06:53:18;;;;;;;4.72;2.35;;;18.50;99.90;;;;;;5067903;28;20211;-74
2021/05/28 06:55:44;;;;;;;8.88;3.50;;;18.40;99.90;;;;;;5062974;28;20213;-72
2021/05/28 06:58:11;;;;;;;5.43;3.22;;;18.20;99.90;;;;;;5060306;28;20667;-73
2021/05/28 07:00:38;;;;;;;5.43;3.35;;;18.20;99.90;;;;;;5069192;28;20206;-73
2021/05/28 07:03:05;;;;;;;5.55;3.70;;;18.20;99.90;;;;;;5058788;28;20206;-73
2021/05/28 07:05:32;;;;;;;4.45;2.72;;;18.30;99.90;;;;;;5063811;28;20217;-72
2021/05/28 07:08:00;;;;;;;4.15;2.83;;;18.40;99.90;;;;;;5062022;28;20203;-72
2021/05/28 07:10:27;;;;;;;8.00;3.25;;;18.70;99.90;;;;;;5070961;28;20217;-72
2021/05/28 07:12:53;;;;;;;4.05;2.97;;;18.90;99.90;;;;;;5059226;28;20316;-73
2021/05/28 07:15:20;;;;;;;4.15;2.72;;;18.90;99.90;;;;;;5063459;28;20293;-72
2021/05/28 07:17:47;;;;;;;3.15;2.55;;;19.20;99.90;;;;;;5065221;28;20230;-73
2021/05/28 07:20:15;;;;;;;6.57;2.90;;;19.40;99.90;;;;;;5059631;28;20214;-72
2021/05/28 07:22:43;;;;;;;5.18;2.95;;;19.40;99.90;;;;;;5058238;28;21008;-72
2021/05/28 07:25:11;;;;;;;5.72;2.47;;;19.60;99.90;;;;;;5058401;28;20693;-72
2021/05/28 07:27:38;;;;;;;6.85;2.65;;;19.40;99.90;;;;;;5064236;28;20690;-71
2021/05/28 07:30:07;;;;;;;5.60;2.38;;;19.60;99.90;;;;;;5055285;28;20214;-72
2021/05/28 07:32:34;;;;;;;6.32;2.85;;;19.60;99.90;;;;;;5070021;28;20206;-71
2021/05/28 07:35:00;;;;;;;4.68;2.70;;;19.60;99.90;;;;;;5062961;28;20210;-72
2021/05/28 07:37:27;;;;;;;7.55;3.47;;;19.70;99.90;;;;;;5062400;28;20222;-74
2021/05/28 07:39:54;;;;;;;7.40;2.75;;;20.00;99.90;;;;;;5070181;28;20593;-73
2021/05/28 07:42:21;;;;;;;4.97;3.65;;;20.00;99.90;;;;;;5058466;28;20610;-73
2021/05/28 07:44:48;;;;;;;5.03;3.13;;;20.00;99.90;;;;;;5066992;28;20210;-73
2021/05/28 07:47:15;;;;;;;4.72;3.13;;;20.30;99.90;;;;;;5071152;28;20614;-71
2021/05/28 07:49:42;;;;;;;6.35;3.50;;;21.10;99.90;;;;;;5057164;28;20206;-71
2021/05/28 07:52:09;;;;;;;4.22;2.85;;;22.00;99.90;;;;;;5071305;28;20198;-71
2021/05/28 07:54:36;;;;;;;3.45;2.45;;;22.60;99.90;;;;;;5063527;28;20208;-72
2021/05/28 07:57:04;;;;;;;3.03;2.30;;;23.50;99.90;;;;;;5066777;28;20214;-72
2021/05/28 07:59:30;;;;;;;2.60;2.08;;;23.80;99.90;;;;;;5070944;28;20210;-70
2021/05/28 08:01:57;;;;;;;3.50;2.95;;;23.40;99.90;;;;;;5064438;28;20209;-71
2021/05/28 08:04:24;;;;;;;3.60;3.17;;;24.10;99.90;;;;;;5068539;28;20206;-71
2021/05/28 08:06:50;;;;;;;7.80;2.65;;;24.10;99.90;;;;;;5067183;28;20587;-71
2021/05/28 08:09:17;;;;;;;5.28;2.80;;;25.60;99.90;;;;;;5061834;28;20236;-70
2021/05/28 08:11:43;;;;;;;3.33;2.58;;;27.10;99.90;;;;;;5059701;28;20206;-70
2021/05/28 08:14:11;;;;;;;3.45;3.15;;;25.70;99.90;;;;;;5065122;28;20693;-73
2021/05/28 08:16:38;;;;;;;5.43;2.65;;;26.50;99.90;;;;;;5061401;28;20209;-71
2021/05/28 08:19:04;;;;;;;3.30;2.50;;;24.60;99.90;;;;;;5054601;28;20234;-71
2021/05/28 08:21:31;;;;;;;2.60;2.40;;;23.80;99.90;;;;;;5064544;28;20229;-71
2021/05/28 08:23:57;;;;;;;2.97;2.30;;;23.70;99.90;;;;;;5054551;28;20203;-71
2021/05/28 08:26:24;;;;;;;3.50;2.15;;;23.70;99.90;;;;;;5054811;28;20214;-70
2021/05/28 08:28:50;;;;;;;3.88;2.33;;;23.70;99.90;;;;;;5054395;28;20612;-70
2021/05/28 08:31:20;;;;;;;3.65;2.80;;;23.70;99.90;;;;;;5054715;28;20203;-70
2021/05/28 08:33:46;;;;;;;7.97;2.88;;;24.10;99.90;;;;;;5065938;28;20245;-70
2021/05/28 08:36:13;;;;;;;3.47;2.70;;;24.40;99.90;;;;;;5067308;28;20209;-69
2021/05/28 08:38:39;;;;;;;3.47;1.98;;;24.30;99.90;;;;;;5065376;28;20243;-70
2021/05/28 08:41:06;;;;;;;3.70;2.38;;;24.70;99.90;;;;;;5054441;28;20240;-71
2021/05/28 08:43:32;;;;;;;3.50;2.58;;;24.90;99.90;;;;;;5054213;28;20206;-69
2021/05/28 08:46:01;;;;;;;3.25;2.50;;;24.40;99.90;;;;;;5059824;28;20210;-69
2021/05/28 08:48:29;;;;;;;4.75;2.67;;;24.10;99.90;;;;;;5074292;28;20729;-70
2021/05/28 08:50:56;;;;;;;3.28;1.67;;;24.50;99.90;;;;;;5066896;28;20239;-69
2021/05/28 08:53:24;;;;;;;3.05;2.40;;;24.30;99.90;;;;;;5064963;28;20339;-70
2021/05/28 08:55:51;;;;;;;2.97;2.00;;;24.30;99.90;;;;;;5068938;28;20237;-70
2021/05/28 08:58:19;;;;;;;3.03;2.33;;;24.20;99.90;;;;;;5066714;28;20237;-70
2021/05/28 09:00:47;;;;;;;3.97;2.58;;;24.90;99.90;;;;;;5074034;28;20205;-70
2021/05/28 09:03:25;;;;;;;3.47;2.53;;;25.30;99.90;;;;;;5073057;28;20209;-70
2021/05/28 09:05:54;;;;;;;2.65;2.42;;;25.00;99.90;;;;;;5073373;28;20209;-69
2021/05/28 09:08:28;;;;;;;4.75;2.20;;;24.30;99.90;;;;;;5073321;28;20214;-70
2021/05/28 09:11:04;;;;;;;3.40;2.05;;;24.20;99.90;;;;;;5066272;28;20271;-70
2021/05/28 09:13:31;;;;;;;4.38;2.65;;;24.10;99.90;;;;;;5063290;28;20213;-71
2021/05/28 09:16:10;;;;;;;4.85;2.53;;;24.30;99.90;;;;;;5073904;28;20232;-70
2021/05/28 09:18:42;;;;;;;6.43;2.10;;;24.40;99.90;;;;;;5072839;28;20226;-70
2021/05/28 09:21:10;;;;;;;4.03;2.50;;;24.00;99.90;;;;;;5070403;28;20210;-71
2021/05/28 09:23:37;;;;;;;12.43;7.60;;;24.00;99.90;;;;;;5073622;28;20210;-70
2021/05/28 09:26:05;;;;;;;15.68;12.45;;;24.40;99.90;;;;;;5073245;28;20214;-71
2021/05/28 09:28:38;;;;;;;6.97;4.90;;;24.20;99.90;;;;;;5053596;28;20214;-69
2021/05/28 09:31:08;;;;;;;3.58;2.83;;;24.10;99.90;;;;;;5053376;28;20207;-70
2021/05/28 09:33:39;;;;;;;7.53;3.08;;;24.50;99.90;;;;;;5071038;28;20214;-71
2021/05/28 09:36:25;;;;;;;2.53;2.28;;;24.50;99.90;;;;;;5072882;28;20662;-70
2021/05/28 09:39:04;;;;;;;3.00;2.40;;;25.10;99.90;;;;;;5072968;28;20244;-71
2021/05/28 09:41:42;;;;;;;4.80;3.03;;;24.80;99.90;;;;;;5068082;28;20206;-72
2021/05/28 09:44:20;;;;;;;5.05;3.05;;;24.30;99.90;;;;;;5053049;28;20210;-71
2021/05/28 09:47:08;;;;;;;12.63;11.25;;;24.50;99.90;;;;;;5055755;28;20199;-71
2021/05/28 09:49:36;;;;;;;5.15;4.63;;;24.90;99.90;;;;;;5061207;28;20215;-71
2021/05/28 09:52:10;;;;;;;3.72;3.40;;;24.80;99.90;;;;;;5052789;28;20203;-71
2021/05/28 09:54:37;;;;;;;2.72;2.25;;;25.10;99.90;;;;;;5054227;28;20685;-72
2021/05/28 09:57:04;;;;;;;4.00;2.60;;;25.50;99.90;;;;;;5072902;28;20206;-70
2021/05/28 09:59:44;;;;;;;2.47;2.28;;;26.60;99.90;;;;;;5072895;28;20661;-72
2021/05/28 10:02:28;;;;;;;4.32;2.38;;;27.20;99.90;;;;;;5065987;28;20220;-71
2021/05/28 10:04:56;;;;;;;5.28;3.05;;;27.80;99.90;;;;;;5063683;28;20241;-71
2021/05/28 10:07:25;;;;;;;5.13;3.08;;;26.80;99.90;;;;;;5071982;28;20213;-72
2021/05/28 10:09:52;;;;;;;3.17;2.70;;;27.10;99.90;;;;;;5072362;28;20201;-71
2021/05/28 10:12:19;;;;;;;5.55;2.53;;;27.00;99.90;;;;;;5072481;28;20285;-72
2021/05/28 10:14:48;;;;;;;4.40;3.15;;;28.20;99.90;;;;;;5072487;28;20209;-71
2021/05/28 10:17:15;;;;;;;3.65;3.22;;;28.30;99.90;;;;;;5066147;28;20624;-73
2021/05/28 10:19:42;;;;;;;5.30;3.42;;;28.20;99.90;;;;;;5068974;28;20212;-73
2021/05/28 10:22:08;;;;;;;4.78;4.28;;;28.60;99.90;;;;;;5061571;28;20210;-73
2021/05/28 10:24:37;;;;;;;8.32;3.20;;;30.50;99.90;;;;;;5066414;28;20213;-72
2021/05/28 10:27:03;;;;;;;4.53;3.17;;;32.10;99.90;;;;;;5067991;28;20250;-72
2021/05/28 10:29:31;;;;;;;5.88;3.47;;;32.50;99.90;;;;;;5058172;28;20272;-73
2021/05/28 10:31:58;;;;;;;3.45;2.75;;;32.20;99.90;;;;;;5060197;28;20213;-73
2021/05/28 10:34:26;;;;;;;4.05;2.47;;;30.00;99.90;;;;;;5068950;28;20206;-71
2021/05/28 10:36:54;;;;;;;3.17;2.72;;;28.20;99.90;;;;;;5061810;28;20248;-72
2021/05/28 10:39:21;;;;;;;3.45;2.65;;;27.70;99.90;;;;;;5057675;28;20239;-71
2021/05/28 10:41:50;;;;;;;4.22;2.40;;;27.00;99.90;;;;;;5071609;28;20213;-71
2021/05/28 10:44:23;;;;;;;4.70;2.38;;;26.60;99.90;;;;;;5071901;28;20671;-72
2021/05/28 10:47:20;;;;;;;3.35;2.70;;;26.90;99.90;;;;;;5071658;28;20202;-72
2021/05/28 10:49:48;;;;;;;4.63;2.50;;;26.80;99.90;;;;;;5063722;28;20600;-72
2021/05/28 10:52:25;;;;;;;4.00;2.85;;;26.80;99.90;;;;;;5058121;28;20255;-72
2021/05/28 10:54:57;;;;;;;3.80;2.60;;;26.40;99.90;;;;;;5060294;28;20285;-74
2021/05/28 10:57:30;;;;;;;6.65;2.25;;;26.10;99.90;;;;;;5059964;28;20203;-75
2021/05/28 10:59:59;;;;;;;4.45;2.05;;;26.20;99.90;;;;;;5070387;28;20217;-72
2021/05/28 11:02:53;;;;;;;3.92;2.33;;;26.00;99.90;;;;;;5063278;28;20206;-73
2021/05/28 11:05:45;;;;;;;3.10;2.53;;;26.40;99.90;;;;;;5061704;28;20209;-73
2021/05/28 11:08:52;;;;;;;3.30;1.90;;;26.30;99.90;;;;;;5057425;28;20210;-72
2021/05/28 11:11:57;;;;;;;8.10;2.63;;;26.20;99.90;;;;;;5051478;28;20210;-72
2021/05/28 11:14:26;;;;;;;2.90;2.00;;;26.20;99.90;;;;;;5051626;28;20300;-72
2021/05/28 11:17:21;;;;;;;3.50;2.15;;;26.10;99.90;;;;;;5051554;28;20216;-71
2021/05/28 11:19:56;;;;;;;2.70;2.22;;;26.10;99.90;;;;;;5051513;28;20210;-73
2021/05/28 11:22:35;;;;;;;2.78;1.98;;;26.30;99.90;;;;;;5060392;28;20209;-72
2021/05/28 11:25:08;;;;;;;2.92;2.58;;;26.50;99.90;;;;;;5059820;28;20225;-73
2021/05/28 11:27:58;;;;;;;5.95;2.13;;;26.50;99.90;;;;;;5071625;28;20264;-72
2021/05/28 11:30:37;;;;;;;4.15;2.03;;;26.40;99.90;;;;;;5070918;28;20729;-72
2021/05/28 11:33:03;;;;;;;3.08;2.63;;;26.60;99.90;;;;;;5059384;28;20624;-72
2021/05/28 11:35:37;;;;;;;1.73;1.63;;;26.90;99.90;;;;;;5052818;28;20207;-73
2021/05/28 11:38:06;;;;;;;3.35;1.80;;;27.00;99.90;;;;;;5066377;28;20264;-72
2021/05/28 11:40:38;;;;;;;3.13;2.15;;;27.00;99.90;;;;;;5064370;28;20213;-71
2021/05/28 11:43:06;;;;;;;2.53;2.30;;;26.60;99.90;;;;;;5070612;28;20205;-74
2021/05/28 11:45:35;;;;;;;3.40;2.20;;;26.70;99.90;;;;;;5051652;28;20256;-74
2021/05/28 11:48:02;;;;;;;5.03;3.33;;;26.40;99.90;;;;;;5051564;28;20218;-72
2021/05/28 11:50:39;;;;;;;4.25;2.05;;;26.60;99.90;;;;;;5051341;28;20257;-73
2021/05/28 11:53:07;;;;;;;2.15;1.98;;;26.60;99.90;;;;;;5053930;28;20578;-72
2021/05/28 11:55:43;;;;;;;2.38;2.15;;;26.50;99.90;;;;;;5058486;28;20229;-71
2021/05/28 11:58:10;;;;;;;5.00;1.95;;;26.70;99.90;;;;;;5074889;28;20603;-72
2021/05/28 12:00:38;;;;;;;2.28;2.08;;;26.80;99.90;;;;;;5075114;28;20201;-71
2021/05/28 12:03:05;;;;;;;3.80;2.13;;;27.20;99.90;;;;;;5075381;28;20206;-72
2021/05/28 12:05:35;;;;;;;5.25;3.05;;;27.20;99.90;;;;;;5072489;28;20256;-71
2021/05/28 12:08:15;;;;;;;4.20;2.10;;;27.20;99.90;;;;;;5066411;28;20210;-73
2021/05/28 12:10:43;;;;;;;2.60;1.92;;;26.90;99.90;;;;;;5054125;28;20203;-73
2021/05/28 12:13:11;;;;;;;3.90;2.30;;;26.60;99.90;;;;;;5052800;28;20206;-73
2021/05/28 12:15:40;;;;;;;2.88;1.90;;;26.80;99.90;;;;;;5054655;28;20214;-77
2021/05/28 12:18:18;;;;;;;2.08;1.52;;;27.10;99.90;;;;;;5054962;28;20238;-73
2021/05/28 12:20:47;;;;;;;1.85;1.58;;;26.40;99.90;;;;;;5054830;28;20260;-72
2021/05/28 12:23:16;;;;;;;4.78;2.00;;;26.50;99.90;;;;;;5054844;28;20202;-72
2021/05/28 12:25:45;;;;;;;3.00;2.55;;;26.80;99.90;;;;;;5054666;28;20261;-73
2021/05/28 12:28:23;;;;;;;3.88;2.35;;;26.80;99.90;;;;;;5054730;28;20220;-73
2021/05/28 12:30:53;;;;;;;2.83;2.35;;;26.70;99.90;;;;;;5054448;28;20214;-72
2021/05/28 12:33:24;;;;;;;2.53;2.15;;;26.70;99.90;;;;;;5054833;28;20610;-72
2021/05/28 12:35:53;;;;;;;2.25;1.88;;;26.60;99.90;;;;;;5054395;28;20713;-72
2021/05/28 12:38:21;;;;;;;3.35;1.95;;;26.30;99.90;;;;;;5054472;28;20233;-72
2021/05/28 12:40:49;;;;;;;1.83;1.73;;;26.80;99.90;;;;;;5054347;28;20210;-72
2021/05/28 12:43:27;;;;;;;3.10;2.15;;;26.50;99.90;;;;;;5054247;28;20264;-72
2021/05/28 12:45:55;;;;;;;3.55;2.35;;;26.50;99.90;;;;;;5057285;28;20252;-74
2021/05/28 12:48:40;;;;;;;4.72;2.58;;;26.80;99.90;;;;;;5054276;28;20210;-74
2021/05/28 12:51:07;;;;;;;2.40;2.13;;;27.00;99.90;;;;;;5054710;28;20250;-75
2021/05/28 12:53:37;;;;;;;3.35;2.42;;;26.70;99.90;;;;;;5054376;28;20215;-73